Time;durP1;ratioP1;P1;durP2;ratioP2;P2;SDS_P1;SDS_P2;PMS_P1;PMS_P2;Temp;Humidity;BMP_temperature;BMP_pressure;BME280_temperature;BME280_humidity;BME280_pressure;Samples;Min_cycle;Max_cycle;Signal;HPM_P1;HPM_P2
2022/01/30 00:02:36;;;;;;;16.15;4.10;;;;;;;8.57;74.32;101193.78;5082422;28;20140;-91
2022/01/30 00:05:10;;;;;;;23.52;4.38;;;;;;;8.71;72.13;101192.50;5081282;28;20051;-96
2022/01/30 00:07:45;;;;;;;17.23;3.95;;;;;;;8.46;72.59;101157.13;5085040;28;20032;-96
2022/01/30 00:10:40;;;;;;;15.35;4.20;;;;;;;8.40;74.04;101166.06;5086285;28;20036;-93
2022/01/30 00:13:32;;;;;;;16.17;3.80;;;;;;;8.64;72.99;101196.25;5081124;28;20127;-93
2022/01/30 00:16:10;;;;;;;16.65;4.03;;;;;;;8.71;72.97;101216.28;5081119;28;20037;-91
2022/01/30 00:19:02;;;;;;;17.45;4.05;;;;;;;8.50;73.29;101190.41;5063035;28;20079;-92
2022/01/30 00:21:53;;;;;;;14.55;3.88;;;;;;;8.54;72.81;101186.81;5064614;28;20048;-93
2022/01/30 00:24:44;;;;;;;15.10;3.15;;;;;;;8.67;72.07;101195.28;5053029;28;20069;-94
2022/01/30 00:27:44;;;;;;;16.00;3.78;;;;;;;8.34;73.04;101146.88;5052644;28;20058;-92
2022/01/30 00:30:23;;;;;;;17.45;3.75;;;;;;;8.53;73.53;101187.72;5044063;28;20080;-93
2022/01/30 00:36:22;;;;;;;20.35;3.15;;;;;;;8.54;71.62;101173.59;5048093;28;20045;-91
2022/01/30 00:38:54;;;;;;;16.52;3.60;;;;;;;8.86;69.99;101206.22;5057086;28;20045;-94
2022/01/30 00:41:27;;;;;;;14.40;3.78;;;;;;;8.69;70.15;101177.63;5068188;28;20052;-91
2022/01/30 00:43:55;;;;;;;12.05;3.38;;;;;;;8.83;69.47;101217.72;5058352;28;20163;-91
2022/01/30 00:46:31;;;;;;;17.27;3.50;;;;;;;8.50;69.34;101171.94;5064045;28;20044;-91
2022/01/30 00:49:10;;;;;;;;;;;;;;;;;;;;;
2022/01/30 00:51:42;;;;;;;16.27;3.07;;;;;;;8.85;66.98;101226.47;5057085;28;20049;-93
2022/01/30 00:55:28;;;;;;;;;;;;;;;;;;;;;
2022/01/30 09:13:37;;;;;;;11.45;1.90;;;;;;;6.86;60.82;101486.34;5835686;23;20056;-93
2022/01/30 09:16:12;;;;;;;14.32;2.10;;;;;;;6.60;61.13;101447.25;4982115;28;20039;-92
2022/01/30 09:18:40;;;;;;;10.48;2.13;;;;;;;6.56;61.01;101456.06;4974540;28;20101;-91
2022/01/30 09:21:23;;;;;;;14.07;2.47;;;;;;;6.72;60.65;101475.16;4973789;28;20485;-94
2022/01/30 09:24:06;;;;;;;18.90;2.55;;;;;;;6.72;60.50;101483.03;4979414;28;20052;-92
2022/01/30 09:26:50;;;;;;;13.32;2.10;;;;;;;6.62;61.10;101475.25;4979885;28;20387;-92
2022/01/30 09:29:17;;;;;;;16.55;2.35;;;;;;;6.51;62.12;101471.91;4977925;28;20043;-92
2022/01/30 09:32:09;;;;;;;13.77;2.85;;;;;;;6.60;62.04;101456.00;4973390;28;20723;-93
2022/01/30 09:34:40;;;;;;;17.67;2.47;;;;;;;7.06;58.54;101515.03;4990494;28;20105;-93
2022/01/30 09:37:11;;;;;;;15.27;2.42;;;;;;;6.86;57.79;101496.88;4983806;28;20068;-95
2022/01/30 09:39:46;;;;;;;16.15;2.42;;;;;;;6.94;58.17;101514.28;4982665;28;20047;-93
2022/01/30 09:42:32;;;;;;;15.95;2.53;;;;;;;7.29;56.33;101528.72;4985900;28;20043;-93
2022/01/30 09:45:06;;;;;;;11.68;2.40;;;;;;;7.27;56.43;101507.66;4988082;28;20698;-93
2022/01/30 09:47:48;;;;;;;15.38;2.70;;;;;;;7.07;56.40;101501.84;4986802;28;20521;-93
2022/01/30 09:50:20;;;;;;;16.23;3.00;;;;;;;7.03;56.78;101515.94;4986499;28;20038;-94
2022/01/30 09:53:02;;;;;;;19.08;3.22;;;;;;;7.15;57.21;101521.03;4971288;28;20051;-93
2022/01/30 09:55:50;;;;;;;11.13;2.80;;;;;;;7.13;57.18;101538.63;4973223;28;20390;-96
2022/01/30 09:58:34;;;;;;;19.00;3.38;;;;;;;7.17;56.01;101524.50;4972424;28;20047;-92
2022/01/30 10:01:05;;;;;;;12.90;2.15;;;;;;;7.23;56.65;101531.47;4957329;28;20039;-91
2022/01/30 10:03:34;;;;;;;16.95;2.30;;;;;;;6.98;56.40;101502.84;4975208;28;20050;-93
2022/01/30 10:06:23;;;;;;;15.65;2.35;;;;;;;7.08;56.49;101522.03;4978779;28;20075;-93
2022/01/30 10:08:56;;;;;;;16.67;2.50;;;;;;;7.12;56.58;101515.78;4969749;28;20039;-93
2022/01/30 10:11:33;;;;;;;18.50;2.83;;;;;;;7.20;56.07;101519.19;4969364;28;20130;-94
2022/01/30 10:14:15;;;;;;;15.45;2.90;;;;;;;7.27;54.98;101536.63;4971447;28;20058;-93
2022/01/30 10:17:07;;;;;;;17.73;2.97;;;;;;;7.09;55.12;101478.97;4966710;28;20597;-92
2022/01/30 10:19:43;;;;;;;14.27;3.10;;;;;;;7.54;54.46;101529.22;4976415;28;20073;-92
2022/01/30 10:22:53;;;;;;;22.02;2.97;;;;;;;7.71;53.88;101549.09;4966558;28;20565;-92
2022/01/30 10:25:36;;;;;;;15.65;3.35;;;;;;;7.89;53.68;101549.69;4982365;28;20934;-93
2022/01/30 10:28:57;;;;;;;16.30;2.63;;;;;;;7.88;53.09;101551.44;4981367;28;20050;-93
2022/01/30 10:31:39;;;;;;;14.50;3.00;;;;;;;7.73;53.82;101531.50;4929485;28;20039;-94
2022/01/30 10:34:19;;;;;;;12.02;2.40;;;;;;;7.88;53.27;101526.84;4987532;28;20035;-92
2022/01/30 10:37:15;;;;;;;11.15;1.95;;;;;;;7.95;53.23;101518.81;4980650;28;20046;-92
2022/01/30 10:40:02;;;;;;;14.23;2.95;;;;;;;8.24;52.97;101554.31;4981025;28;20051;-94
2022/01/30 10:42:39;;;;;;;12.70;2.28;;;;;;;8.05;51.93;101532.69;4980164;28;20051;-92
2022/01/30 10:45:54;;;;;;;14.70;2.72;;;;;;;7.94;52.31;101532.03;4980118;28;20050;-92
2022/01/30 10:48:58;;;;;;;14.77;2.67;;;;;;;8.06;51.84;101540.56;4984632;28;20524;-93
2022/01/30 10:51:58;;;;;;;18.67;2.83;;;;;;;7.80;51.12;101511.16;4952659;28;20051;-93
2022/01/30 10:54:37;;;;;;;9.90;2.25;;;;;;;7.99;52.15;101544.25;4955806;28;20830;-93
2022/01/30 10:57:17;;;;;;;10.77;2.58;;;;;;;8.20;51.43;101548.22;4953546;28;20055;-92
2022/01/30 10:59:56;;;;;;;18.00;2.65;;;;;;;8.36;51.57;101570.81;4959426;28;20043;-91
2022/01/30 11:02:25;;;;;;;12.70;2.63;;;;;;;8.15;51.93;101554.50;4951721;28;20605;-93
2022/01/30 11:05:13;;;;;;;18.58;3.85;;;;;;;8.25;51.25;101572.78;4957298;28;20043;-93
2022/01/30 11:07:47;;;;;;;13.25;2.70;;;;;;;7.99;51.63;101530.19;4956423;28;20075;-93
2022/01/30 11:10:25;;;;;;;11.93;2.33;;;;;;;8.04;52.69;101557.31;4970575;28;20145;-93
2022/01/30 11:13:09;;;;;;;14.80;3.38;;;;;;;7.73;51.94;101533.25;4976737;28;20045;-92
2022/01/30 11:16:55;;;;;;;18.90;3.25;;;;;;;7.98;52.38;101589.97;4936037;29;20063;-93
2022/01/30 11:19:02;;;;;;;14.27;3.05;;;;;;;7.91;53.36;101598.88;4942681;29;20071;-92
2022/01/30 11:21:37;;;;;;;13.67;2.87;;;;;;;7.90;53.50;101602.41;4939315;29;20086;-93
2022/01/30 11:24:06;;;;;;;13.73;3.70;;;;;;;7.53;53.10;101548.56;4938308;29;20594;-92
2022/01/30 11:26:46;;;;;;;17.35;2.72;;;;;;;7.57;53.87;101571.31;4938381;29;20043;-92
2022/01/30 11:29:30;;;;;;;16.35;2.80;;;;;;;7.66;53.16;101587.88;4939685;29;20044;-93
2022/01/30 11:32:11;;;;;;;13.10;2.60;;;;;;;7.46;52.80;101566.22;4932205;29;20106;-93
2022/01/30 11:34:56;;;;;;;18.27;3.05;;;;;;;7.37;52.50;101538.25;4935791;29;20063;-93
2022/01/30 11:37:38;;;;;;;20.02;3.65;;;;;;;7.82;51.88;101598.16;4928546;29;20059;-93
2022/01/30 11:40:14;;;;;;;18.25;3.08;;;;;;;7.90;51.53;101605.03;4940514;29;20107;-94
2022/01/30 11:42:48;;;;;;;16.70;2.90;;;;;;;7.52;51.65;101552.97;4938726;29;20071;-92
2022/01/30 11:45:34;;;;;;;18.83;2.97;;;;;;;7.42;51.88;101545.19;4940224;29;20115;-91
2022/01/30 11:48:19;;;;;;;15.68;3.80;;;;;;;7.53;52.59;101588.97;4935921;29;20124;-92
2022/01/30 11:51:03;;;;;;;17.65;3.10;;;;;;;7.49;52.77;101594.31;4936083;29;20095;-93
2022/01/30 11:53:44;;;;;;;18.63;3.63;;;;;;;7.61;52.60;101620.47;4938111;29;20426;-92
2022/01/30 11:56:31;;;;;;;20.80;4.00;;;;;;;7.36;52.91;101570.78;4943782;29;20087;-92
2022/01/30 11:59:45;;;;;;;10.30;3.30;;;;;;;7.22;52.90;101554.31;4937948;29;20107;-92
2022/01/30 12:02:30;;;;;;;13.77;3.08;;;;;;;7.58;53.63;101612.59;4935163;29;20059;-93
2022/01/30 12:05:16;;;;;;;20.73;3.70;;;;;;;7.48;53.82;101584.66;4931361;29;20059;-92
2022/01/30 12:07:51;;;;;;;16.35;3.17;;;;;;;7.71;53.18;101609.75;4937420;29;20060;-91
2022/01/30 12:10:27;;;;;;;16.35;2.95;;;;;;;7.51;53.90;101587.25;4939451;29;20091;-92
2022/01/30 12:13:09;;;;;;;14.63;3.40;;;;;;;7.55;53.86;101608.28;4938336;29;20043;-91
2022/01/30 12:15:52;;;;;;;16.55;3.65;;;;;;;7.37;54.41;101587.44;4939829;29;20051;-92
2022/01/30 12:18:48;;;;;;;19.05;3.30;;;;;;;7.02;55.08;101556.34;4942571;29;20054;-92
2022/01/30 12:21:45;;;;;;;16.85;3.67;;;;;;;7.11;55.47;101582.53;4934292;29;20179;-93
2022/01/30 12:24:36;;;;;;;18.92;3.15;;;;;;;7.06;55.64;101581.75;4936292;29;20059;-92
2022/01/30 12:27:20;;;;;;;22.25;3.15;;;;;;;7.13;56.50;101599.19;4939150;29;20613;-93
2022/01/30 12:30:46;;;;;;;21.55;3.17;;;;;;;6.99;56.50;101577.44;4937197;29;20088;-93
2022/01/30 12:33:34;;;;;;;24.77;3.58;;;;;;;6.92;55.82;101545.06;4934747;29;20050;-92
2022/01/30 12:36:17;;;;;;;19.65;3.38;;;;;;;7.15;54.38;101584.25;4938619;29;20056;-94
2022/01/30 12:38:45;;;;;;;17.90;3.72;;;;;;;7.15;53.93;101586.88;4938672;28;20051;-92
2022/01/30 12:41:19;;;;;;;15.98;3.58;;;;;;;7.28;53.57;101601.63;4940349;29;20067;-93
2022/01/30 12:43:56;;;;;;;16.23;3.35;;;;;;;7.33;52.31;101589.25;4935327;29;20094;-93
2022/01/30 12:46:31;;;;;;;19.15;3.17;;;;;;;7.22;52.60;101582.41;4941326;29;20055;-93
2022/01/30 12:49:13;;;;;;;18.38;4.13;;;;;;;7.19;51.88;101567.50;4937487;29;20504;-93
2022/01/30 12:51:49;;;;;;;17.27;3.70;;;;;;;7.32;52.23;101600.69;4943070;29;20110;-92
2022/01/30 12:54:28;;;;;;;24.33;4.00;;;;;;;7.35;51.92;101597.13;4943050;29;20111;-92
2022/01/30 12:56:57;;;;;;;20.38;3.72;;;;;;;7.12;52.18;101563.22;4949590;29;20040;-92
2022/01/30 12:59:25;;;;;;;20.15;3.03;;;;;;;7.32;52.38;101598.06;4951885;29;20048;-92
2022/01/30 13:01:52;;;;;;;21.23;3.15;;;;;;;7.10;53.11;101562.34;4946740;29;20114;-92
2022/01/30 13:04:26;;;;;;;21.25;3.60;;;;;;;7.00;53.34;101539.69;4946431;29;20047;-92
2022/01/30 13:06:55;;;;;;;20.95;3.83;;;;;;;7.32;53.17;101558.53;4940413;29;20039;-94
2022/01/30 13:09:25;;;;;;;26.45;3.83;;;;;;;7.36;53.31;101533.00;4941575;29;20635;-92
2022/01/30 13:12:39;;;;;;;17.25;4.03;;;;;;;7.70;52.89;101557.94;4942534;29;20040;-93
2022/01/30 13:15:27;;;;;;;22.35;4.80;;;;;;;7.83;52.44;101563.00;4974749;28;20058;-92
2022/01/30 13:18:00;;;;;;;23.55;4.18;;;;;;;7.72;52.33;101545.56;4977650;28;20042;-92
2022/01/30 13:20:49;;;;;;;16.88;3.20;;;;;;;7.71;51.91;101543.00;4980902;28;20627;-91
2022/01/30 13:23:28;;;;;;;15.07;3.20;;;;;;;7.84;52.13;101531.31;4978853;28;20039;-92
2022/01/30 13:26:07;;;;;;;21.98;3.72;;;;;;;8.02;52.17;101528.38;4963422;28;20394;-93
2022/01/30 13:28:38;;;;;;;23.08;3.65;;;;;;;7.85;52.39;101497.91;4964110;28;20054;-93
2022/01/30 13:31:13;;;;;;;18.00;3.38;;;;;;;8.02;52.17;101533.63;4975438;28;20445;-92
2022/01/30 13:33:40;;;;;;;19.48;3.50;;;;;;;7.96;52.11;101541.66;4973194;28;20078;-91
2022/01/30 13:36:24;;;;;;;12.52;2.63;;;;;;;7.92;51.87;101518.84;4978237;28;20051;-92
2022/01/30 13:39:10;;;;;;;15.32;3.40;;;;;;;8.09;52.07;101522.06;4977680;28;20067;-93
2022/01/30 13:42:00;;;;;;;17.15;3.25;;;;;;;8.02;51.35;101516.94;4982971;28;20043;-93
2022/01/30 13:44:49;;;;;;;23.17;3.85;;;;;;;8.29;51.30;101563.03;4972809;28;20066;-94
2022/01/30 13:47:22;;;;;;;17.33;3.08;;;;;;;8.15;51.12;101568.56;4990691;28;20046;-93
2022/01/30 13:49:53;;;;;;;21.65;3.65;;;;;;;7.93;51.01;101546.97;4983422;28;20047;-93
2022/01/30 13:52:30;;;;;;;21.52;3.72;;;;;;;7.72;51.43;101520.97;4981286;28;20042;-92
2022/01/30 13:55:13;;;;;;;14.73;3.03;;;;;;;7.85;52.02;101555.94;4979628;28;20043;-92
2022/01/30 13:57:58;;;;;;;20.77;3.92;;;;;;;7.81;51.95;101541.91;4982238;28;20110;-93
2022/01/30 14:00:31;;;;;;;17.75;3.42;;;;;;;7.90;51.88;101559.34;4985687;28;20043;-92
2022/01/30 14:03:09;;;;;;;26.90;5.00;;;;;;;7.81;52.40;101547.19;4982100;28;20114;-91
2022/01/30 14:05:46;;;;;;;22.95;4.93;;;;;;;7.56;52.49;101524.75;4978974;28;20082;-91
2022/01/30 14:08:15;;;;;;;18.67;3.40;;;;;;;7.69;52.43;101543.00;4975803;28;20553;-91
2022/01/30 14:10:44;;;;;;;20.30;3.40;;;;;;;7.77;52.53;101555.16;4970128;28;20077;-92
2022/01/30 14:13:22;;;;;;;17.45;3.72;;;;;;;7.68;52.40;101524.56;4966811;28;20129;-92
2022/01/30 14:16:01;;;;;;;21.50;3.70;;;;;;;7.61;52.14;101513.25;4979180;28;20078;-91
2022/01/30 14:18:34;;;;;;;18.15;3.00;;;;;;;7.74;51.09;101529.72;4980614;28;20127;-92
2022/01/30 14:21:15;;;;;;;19.55;3.47;;;;;;;7.76;50.06;101520.03;4984446;28;20050;-91
2022/01/30 14:23:43;;;;;;;13.25;3.05;;;;;;;7.96;50.02;101531.09;4976886;28;20047;-92
2022/01/30 14:26:22;;;;;;;15.23;3.30;;;;;;;7.98;49.31;101536.34;4965737;28;20086;-90
2022/01/30 14:29:20;;;;;;;16.45;3.25;;;;;;;8.00;49.31;101550.38;4983061;28;20059;-92
2022/01/30 14:32:01;;;;;;;15.70;3.20;;;;;;;7.88;48.66;101533.00;4959951;28;20047;-91
2022/01/30 14:34:30;;;;;;;17.67;3.30;;;;;;;7.85;49.13;101533.06;4977026;28;20062;-92
2022/01/30 14:37:01;;;;;;;16.08;3.15;;;;;;;7.89;48.47;101547.91;4980643;28;20047;-91
2022/01/30 14:39:35;;;;;;;14.40;3.00;;;;;;;7.81;47.69;101552.47;4961051;28;20043;-91
2022/01/30 14:42:05;;;;;;;12.88;2.50;;;;;;;7.52;48.23;101537.16;4962009;28;21424;-91
2022/01/30 14:44:41;;;;;;;14.70;3.22;;;;;;;7.37;49.01;101522.44;4959678;28;20094;-91
2022/01/30 14:47:09;;;;;;;16.60;3.47;;;;;;;7.24;49.38;101512.97;4962230;28;20109;-91
2022/01/30 14:49:41;;;;;;;20.17;3.53;;;;;;;7.04;48.92;101499.25;4954275;28;20054;-93
2022/01/30 14:52:08;;;;;;;18.90;3.28;;;;;;;7.32;48.02;101539.22;4963695;28;20057;-92
2022/01/30 14:54:36;;;;;;;21.27;3.65;;;;;;;7.16;48.35;101528.03;4959406;28;20046;-94
2022/01/30 14:57:22;;;;;;;13.65;2.72;;;;;;;7.27;48.23;101530.50;4950652;28;20051;-94
2022/01/30 14:59:55;;;;;;;11.82;3.50;;;;;;;7.33;48.97;101536.56;4958485;28;20066;-94
2022/01/30 15:02:37;;;;;;;16.38;2.60;;;;;;;7.37;48.68;101532.13;4961742;28;20058;-91
2022/01/30 15:05:08;;;;;;;18.27;3.70;;;;;;;7.36;48.96;101518.06;4957429;28;20027;-92
2022/01/30 15:11:12;;;;;;;15.02;3.30;;;;;;;7.08;49.10;101482.53;4948492;28;20050;-95
2022/01/30 15:14:35;;;;;;;19.52;3.60;;;;;;;7.28;49.81;101526.97;4955872;28;20051;-94
2022/01/30 15:17:48;;;;;;;20.58;3.80;;;;;;;7.01;49.24;101478.22;4947045;28;20051;-93
2022/01/30 15:21:05;;;;;;;16.00;4.75;;;;;;;7.26;49.70;101520.84;4965777;28;20058;-96
2022/01/30 15:23:50;;;;;;;19.02;3.20;;;;;;;6.82;49.96;101448.66;4957850;28;20714;-95
2022/01/30 15:26:56;;;;;;;;;;;;;;;;;;;;;
2022/01/30 15:32:52;;;;;;;21.58;4.05;;;;;;;6.75;51.01;101454.06;5509250;23;20085;-92
2022/01/30 15:35:48;;;;;;;;;;;;;;;;;;;;;
2022/01/30 15:38:37;;;;;;;23.35;4.00;;;;;;;6.69;51.58;101453.25;4992977;28;20098;-92
2022/01/30 15:41:25;;;;;;;25.83;4.20;;;;;;;6.63;51.31;101449.81;4993206;28;20368;-94
2022/01/30 15:44:13;;;;;;;20.42;3.50;;;;;;;6.94;50.50;101484.47;4986075;28;20137;-94
2022/01/30 15:49:53;;;;;;;20.23;4.28;;;;;;;6.78;50.84;101491.72;4979694;28;20097;-91
2022/01/30 15:52:23;;;;;;;;;;;;;;;6.67;51.44;101494.50;4981213;28;20138;-90
2022/01/30 15:54:50;;;;;;;24.42;4.75;;;;;;;6.42;51.97;101461.50;4977767;28;19930;-90
2022/01/30 15:57:31;;;;;;;24.98;4.90;;;;;;;6.19;52.35;101424.97;4979852;28;20039;-92
2022/01/30 15:59:58;;;;;;;30.02;5.15;;;;;;;6.34;53.02;101458.97;4978657;28;20537;-91
2022/01/30 16:02:25;;;;;;;25.73;4.55;;;;;;;6.46;52.67;101486.88;4980677;28;20323;-91
2022/01/30 16:04:55;;;;;;;19.35;4.53;;;;;;;6.36;52.34;101468.59;4980259;28;20050;-91
2022/01/30 16:07:26;;;;;;;16.40;4.10;;;;;;;6.46;52.29;101497.41;4982435;28;20494;-89
2022/01/30 16:10:22;;;;;;;25.75;4.63;;;;;;;6.13;52.69;101426.81;4979774;28;20058;-90
2022/01/30 16:15:35;;;;;;;16.90;4.22;;;;;;;6.29;52.58;101465.19;4975267;28;20110;-91
2022/01/30 16:15:39;;;;;;;18.98;4.28;;;;;;;6.47;52.49;101483.34;4982986;28;20065;-95
2022/01/30 16:18:31;;;;;;;23.20;4.10;;;;;;;6.37;52.49;101481.75;4985771;28;20047;-92
2022/01/30 16:21:46;;;;;;;28.65;5.32;;;;;;;6.25;52.97;101453.84;4987439;28;20538;-93
2022/01/30 16:24:18;;;;;;;18.98;3.88;;;;;;;6.39;53.28;101485.22;4983325;28;20058;-94
2022/01/30 16:27:00;;;;;;;27.33;4.45;;;;;;;6.29;53.08;101465.19;4982576;28;20499;-92
2022/01/30 16:29:47;;;;;;;17.27;3.90;;;;;;;6.33;53.68;101482.66;4984994;28;20055;-96
2022/01/30 16:32:20;;;;;;;21.35;4.28;;;;;;;6.09;53.50;101448.78;4984794;28;20059;-96
2022/01/30 16:35:15;;;;;;;16.00;3.50;;;;;;;5.99;53.15;101422.56;4934776;29;20047;-96
2022/01/30 16:38:06;;;;;;;23.15;4.85;;;;;;;6.32;53.72;101500.19;4940986;29;20064;-93
2022/01/30 16:41:48;;;;;;;20.67;4.45;;;;;;;6.27;54.10;101478.38;4944125;29;20682;-94
2022/01/30 16:57:51;;;;;;;18.65;4.38;;;;;;;6.24;54.44;101478.41;5585733;22;16031598;-95
2022/01/30 17:00:38;;;;;;;17.27;4.38;;;;;;;6.08;54.19;101447.91;6273948;22;20008;-92
2022/01/30 17:03:30;;;;;;;20.27;4.32;;;;;;;6.04;54.59;101429.53;6271971;23;20050;-92
2022/01/30 17:05:59;;;;;;;26.15;4.40;;;;;;;6.24;54.08;101459.97;6271080;22;20020;-92
2022/01/30 17:09:11;;;;;;;21.90;4.60;;;;;;;6.07;54.29;101434.78;6269256;22;20018;-89
2022/01/30 17:12:01;;;;;;;22.83;6.22;;;;;;;5.84;54.90;101406.06;6253834;23;20020;-91
2022/01/30 17:14:28;;;;;;;25.08;5.35;;;;;;;5.97;54.59;101428.75;6257070;22;20016;-90
2022/01/30 17:16:59;;;;;;;24.85;5.95;;;;;;;6.01;55.00;101443.59;6260774;22;20028;-91
2022/01/30 17:19:50;;;;;;;15.98;3.90;;;;;;;6.05;54.40;101453.19;6267697;23;20044;-89
2022/01/30 17:22:20;;;;;;;24.17;4.20;;;;;;;6.07;53.72;101461.94;6273980;22;20026;-90
2022/01/30 17:24:49;;;;;;;17.67;3.80;;;;;;;6.03;53.71;101452.34;6265846;23;20034;-90
2022/01/30 17:27:24;;;;;;;24.98;5.57;;;;;;;5.91;54.91;101442.84;6263204;22;20017;-92
2022/01/30 17:29:55;;;;;;;20.00;5.65;;;;;;;6.04;54.26;101461.09;6264018;22;20082;-92
2022/01/30 17:32:30;;;;;;;22.67;5.10;;;;;;;5.88;53.97;101421.84;6262561;22;20065;-90
2022/01/30 17:34:59;;;;;;;25.58;5.45;;;;;;;6.04;53.48;101451.44;6260706;23;20039;-89
2022/01/30 17:37:35;;;;;;;24.92;6.07;;;;;;;5.98;54.24;101435.75;6259944;22;20023;-91
2022/01/30 17:40:15;;;;;;;;;;;;;;;6.10;54.02;101466.31;6257415;23;20035;-90
2022/01/30 17:42:46;;;;;;;24.85;5.78;;;;;;;5.87;54.35;101420.06;6259156;23;19923;-92
2022/01/30 17:45:29;;;;;;;24.70;5.05;;;;;;;5.91;54.73;101436.72;6258645;22;20027;-90
2022/01/30 17:48:07;;;;;;;;;;;;;;;;;;;;;
2022/01/30 17:50:40;;;;;;;20.67;4.82;;;;;;;5.77;55.27;101431.56;6256239;22;20026;-90
2022/01/30 17:53:14;;;;;;;24.30;5.97;;;;;;;5.89;54.99;101447.25;6258426;22;20039;-91
2022/01/30 17:55:46;;;;;;;21.10;5.32;;;;;;;5.90;54.83;101443.72;6254743;23;20027;-91
2022/01/30 17:58:17;;;;;;;21.98;5.00;;;;;;;5.73;55.63;101423.72;6253269;22;20023;-90
2022/01/30 18:00:45;;;;;;;;;;;;;;;5.85;55.34;101449.88;6253998;22;20031;-91
2022/01/30 18:03:18;;;;;;;18.83;4.18;;;;;;;5.59;55.84;101414.25;6252251;22;19915;-91
2022/01/30 18:06:04;;;;;;;23.38;5.18;;;;;;;5.53;55.73;101411.66;6253295;23;20012;-90
2022/01/30 18:08:59;;;;;;;25.27;5.20;;;;;;;5.72;56.01;101446.50;6252348;22;20024;-92
2022/01/30 18:15:30;;;;;;;23.38;5.05;;;;;;;5.47;55.96;101403.88;6254961;23;20020;-94
2022/01/30 18:18:27;;;;;;;19.15;4.80;;;;;;;5.29;56.64;101385.66;6261550;23;20050;-94
2022/01/30 18:21:29;;;;;;;23.90;4.75;;;;;;;5.22;57.09;101374.31;6257040;23;20387;-93
2022/01/30 18:24:29;;;;;;;24.77;4.45;;;;;;;5.64;56.87;101437.84;6259885;23;20020;-93
2022/01/30 18:27:15;;;;;;;24.35;5.57;;;;;;;5.51;56.49;101409.97;6258256;23;20026;-93
2022/01/30 18:29:56;;;;;;;19.67;4.80;;;;;;;5.49;56.57;101406.47;6256540;22;20016;-93
2022/01/30 18:32:45;;;;;;;23.08;5.25;;;;;;;5.63;56.84;101436.09;6257594;23;20020;-91
2022/01/30 18:35:33;;;;;;;19.90;5.80;;;;;;;5.41;56.64;101397.78;6231710;23;20027;-91
2022/01/30 18:43:39;;;;;;;22.98;5.30;;;;;;;5.42;57.16;101382.00;6256238;22;20032;-92
2022/01/30 18:46:31;;;;;;;25.75;4.15;;;;;;;5.51;56.89;101400.28;6253292;23;20039;-91
2022/01/30 18:49:14;;;;;;;20.88;4.00;;;;;;;5.32;56.76;101364.63;6255220;22;20062;-91
2022/01/30 18:51:44;;;;;;;21.80;4.63;;;;;;;5.31;57.13;101355.00;6256052;23;20027;-90
2022/01/30 18:54:14;;;;;;;;;;;;;;;5.55;57.07;101390.63;6255634;23;20036;-91
2022/01/30 18:57:41;;;;;;;21.60;4.88;;;;;;;5.53;56.72;101380.13;6257176;23;19938;-91
2022/01/30 19:00:26;;;;;;;25.80;4.95;;;;;;;5.27;56.98;101343.66;6256158;23;20382;-91
2022/01/30 19:03:24;;;;;;;24.65;4.93;;;;;;;4.99;58.09;101310.69;6254627;23;20350;-96
2022/01/30 19:06:00;;;;;;;28.10;4.80;;;;;;;4.95;58.22;101314.22;6260854;22;20047;-94
2022/01/30 19:08:35;;;;;;;24.63;4.60;;;;;;;5.04;58.61;101348.22;6265830;22;20051;-92
2022/01/30 19:11:21;;;;;;;20.88;5.47;;;;;;;4.76;58.83;101315.25;6258371;23;20028;-91
2022/01/30 19:14:18;;;;;;;24.92;4.88;;;;;;;4.55;59.11;101293.59;6166951;23;20445;-91
2022/01/30 19:27:48;;;;;;;24.75;5.05;;;;;;;4.70;61.51;101346.81;6003421;22;4818356;-92
2022/01/30 19:30:17;;;;;;;21.02;5.25;;;;;;;4.49;61.55;101313.72;6201301;23;20467;-91
2022/01/30 19:32:58;;;;;;;24.23;5.20;;;;;;;4.34;62.00;101301.59;6195882;23;20021;-91
2022/01/30 19:35:27;;;;;;;23.20;5.72;;;;;;;4.42;62.30;101307.66;6195180;23;20445;-93
2022/01/30 19:37:57;;;;;;;23.25;6.25;;;;;;;4.17;62.05;101272.00;6194015;23;20025;-92
2022/01/30 19:40:25;;;;;;;22.92;6.07;;;;;;;4.33;62.58;101301.59;6193770;23;20472;-92
2022/01/30 19:42:54;;;;;;;26.83;6.03;;;;;;;4.40;62.86;101327.78;6167437;23;20020;-92
2022/01/30 19:45:22;;;;;;;21.30;5.22;;;;;;;4.00;62.74;101260.75;6191419;23;20017;-95
2022/01/30 19:47:55;;;;;;;20.67;5.00;;;;;;;4.38;63.22;101324.31;6189285;23;20017;-93
2022/01/30 19:50:24;;;;;;;21.33;5.50;;;;;;;3.94;63.63;101251.16;6189537;23;20016;-92
2022/01/30 19:52:52;;;;;;;19.98;5.30;;;;;;;4.26;63.29;101302.50;6188974;23;20087;-93
2022/01/30 19:55:20;;;;;;;20.45;5.03;;;;;;;4.12;64.09;101284.25;6193162;23;20017;-94
2022/01/30 19:57:47;;;;;;;29.38;5.60;;;;;;;3.91;64.16;101239.88;6195322;23;20024;-93
2022/01/30 20:00:16;;;;;;;24.42;5.20;;;;;;;4.19;64.24;101288.59;6168247;23;20448;-92
2022/01/30 20:02:46;;;;;;;27.50;5.53;;;;;;;3.90;64.34;101235.50;6167008;23;20067;-94
2022/01/30 20:05:27;;;;;;;22.52;5.70;;;;;;;4.31;64.29;101301.63;6145073;23;20025;-92
2022/01/30 20:07:54;;;;;;;26.15;5.60;;;;;;;4.17;63.95;101277.25;6166303;23;20377;-91
2022/01/30 20:10:21;;;;;;;25.00;5.72;;;;;;;4.19;64.46;101291.22;6193323;23;20021;-92
2022/01/30 20:12:47;;;;;;;22.23;5.63;;;;;;;4.17;64.22;101288.59;6190527;23;20361;-92
2022/01/30 20:15:20;;;;;;;22.58;5.97;;;;;;;4.06;63.97;101269.47;6193365;23;20433;-92
2022/01/30 20:17:47;;;;;;;18.27;6.18;;;;;;;4.01;64.28;101254.63;6191317;23;20074;-91
2022/01/30 20:20:22;;;;;;;26.85;6.00;;;;;;;4.28;64.42;101291.13;6192663;23;20036;-93
2022/01/30 20:22:49;;;;;;;21.63;5.30;;;;;;;4.26;64.57;101292.91;6190649;23;20024;-92
2022/01/30 20:25:35;;;;;;;21.73;5.28;;;;;;;4.07;63.50;101239.75;6190332;23;20013;-94
2022/01/30 20:28:38;;;;;;;24.15;5.90;;;;;;;4.25;64.03;101282.44;6186665;23;20052;-92
2022/01/30 20:31:07;;;;;;;29.05;7.18;;;;;;;4.17;64.00;101280.75;6199841;23;20105;-92
2022/01/30 20:33:46;;;;;;;31.42;6.90;;;;;;;4.09;65.18;101274.66;6192622;23;20021;-96
2022/01/30 20:36:13;;;;;;;36.30;8.32;;;;;;;3.60;65.38;101197.25;6202589;23;20021;-92
2022/01/30 20:38:40;;;;;;;35.80;8.02;;;;;;;3.53;65.96;101202.53;6188496;23;20013;-94
2022/01/30 20:41:08;;;;;;;30.55;7.30;;;;;;;3.76;66.17;101243.44;6188411;23;20107;-92
2022/01/30 20:43:58;;;;;;;24.10;7.10;;;;;;;3.70;66.45;101246.09;6069067;23;20475;-93
2022/01/30 20:46:39;;;;;;;26.25;7.68;;;;;;;3.77;66.58;101268.75;6067313;23;20026;-93
2022/01/30 20:49:14;;;;;;;24.58;7.40;;;;;;;3.32;66.71;101186.91;6070980;23;20049;-92
2022/01/30 20:52:13;;;;;;;26.10;7.28;;;;;;;3.57;68.17;101236.56;6049216;23;20023;-92
2022/01/30 20:54:40;;;;;;;26.70;8.32;;;;;;;3.17;68.48;101169.53;6037842;23;20094;-92
2022/01/30 20:57:13;;;;;;;26.95;8.07;;;;;;;3.27;68.62;101200.91;6038030;23;20027;-94
2022/01/30 20:59:43;;;;;;;25.27;7.30;;;;;;;3.44;68.31;101239.25;6037978;23;20048;-92
2022/01/30 21:02:24;;;;;;;25.70;7.45;;;;;;;3.42;68.72;101221.78;6122713;23;20438;-92
2022/01/30 21:04:55;;;;;;;29.63;7.45;;;;;;;3.12;68.14;101173.94;6152208;23;20461;-92
2022/01/30 21:07:31;;;;;;;25.00;7.13;;;;;;;3.01;68.45;101153.91;6154413;23;20017;-93
2022/01/30 21:10:00;;;;;;;37.25;8.05;;;;;;;3.26;68.74;101191.31;6153568;23;20017;-94
2022/01/30 21:12:52;;;;;;;29.70;7.68;;;;;;;3.32;68.74;101183.44;6153610;23;20465;-92
2022/01/30 21:15:24;;;;;;;30.23;7.50;;;;;;;3.26;68.73;101173.00;6149226;23;20024;-93
2022/01/30 21:18:15;;;;;;;25.02;7.55;;;;;;;3.26;68.85;101162.53;6152384;23;20647;-95
2022/01/30 21:20:45;;;;;;;31.73;8.07;;;;;;;3.34;68.72;101174.69;6152809;23;20677;-93
2022/01/30 21:23:13;;;;;;;20.20;7.57;;;;;;;3.28;69.17;101160.78;6172593;23;20024;-93
2022/01/30 21:25:47;;;;;;;33.95;7.78;;;;;;;3.42;69.17;101178.16;6185002;23;20017;-93
2022/01/30 21:28:21;;;;;;;29.83;8.15;;;;;;;3.03;69.16;101110.28;6176635;23;20041;-93
2022/01/30 21:30:54;;;;;;;31.20;7.80;;;;;;;3.36;70.07;101165.09;6184834;23;20027;-94
2022/01/30 21:33:30;;;;;;;32.95;7.95;;;;;;;3.33;70.44;101146.78;6185395;23;20019;-94
2022/01/30 21:35:59;;;;;;;32.47;9.02;;;;;;;3.24;70.29;101132.88;6184629;23;20634;-95
2022/01/30 21:38:37;;;;;;;32.50;8.18;;;;;;;3.16;69.86;101120.69;6183209;23;20024;-94